sensor_id;sensor_type;location;lat;lon;timestamp;P1;durP1;ratioP1;P2;durP2;ratioP2
67751;SDS011;54551;51.068;5.826;2023-03-01T00:01:01;171.17;;;57.57;;
67751;SDS011;54551;51.068;5.826;2023-03-01T00:03:28;105.27;;;36.97;;
67751;SDS011;54551;51.068;5.826;2023-03-01T00:05:54;157.17;;;53.10;;
67751;SDS011;54551;51.068;5.826;2023-03-01T00:08:20;147.77;;;48.97;;
67751;SDS011;54551;51.068;5.826;2023-03-01T00:10:46;312.07;;;103.97;;
67751;SDS011;54551;51.068;5.826;2023-03-01T00:13:12;287.57;;;89.63;;
67751;SDS011;54551;51.068;5.826;2023-03-01T00:15:41;68.57;;;25.67;;
67751;SDS011;54551;51.068;5.826;2023-03-01T00:18:07;16.67;;;9.90;;
67751;SDS011;54551;51.068;5.826;2023-03-01T00:20:33;9.97;;;8.40;;
67751;SDS011;54551;51.068;5.826;2023-03-01T00:23:00;10.07;;;8.40;;
67751;SDS011;54551;51.068;5.826;2023-03-01T00:25:26;10.60;;;8.80;;
67751;SDS011;54551;51.068;5.826;2023-03-01T00:27:51;10.90;;;8.50;;
67751;SDS011;54551;51.068;5.826;2023-03-01T00:30:18;9.57;;;8.43;;
67751;SDS011;54551;51.068;5.826;2023-03-01T00:32:45;12.17;;;9.10;;
67751;SDS011;54551;51.068;5.826;2023-03-01T00:35:10;13.00;;;8.90;;
67751;SDS011;54551;51.068;5.826;2023-03-01T00:37:36;11.23;;;8.73;;
67751;SDS011;54551;51.068;5.826;2023-03-01T00:40:02;11.50;;;8.37;;
67751;SDS011;54551;51.068;5.826;2023-03-01T00:42:31;11.77;;;8.50;;
67751;SDS011;54551;51.068;5.826;2023-03-01T00:44:57;10.73;;;9.10;;
67751;SDS011;54551;51.068;5.826;2023-03-01T00:47:23;9.77;;;8.43;;
67751;SDS011;54551;51.068;5.826;2023-03-01T00:49:48;11.73;;;9.33;;
67751;SDS011;54551;51.068;5.826;2023-03-01T00:52:15;11.60;;;8.93;;
67751;SDS011;54551;51.068;5.826;2023-03-01T00:54:40;10.90;;;9.30;;
67751;SDS011;54551;51.068;5.826;2023-03-01T00:57:07;11.70;;;9.07;;
67751;SDS011;54551;51.068;5.826;2023-03-01T00:59:33;29.10;;;15.00;;
67751;SDS011;54551;51.068;5.826;2023-03-01T01:02:00;91.90;;;35.97;;
67751;SDS011;54551;51.068;5.826;2023-03-01T01:04:26;116.00;;;42.83;;
67751;SDS011;54551;51.068;5.826;2023-03-01T01:06:51;90.23;;;34.40;;
67751;SDS011;54551;51.068;5.826;2023-03-01T01:09:17;71.43;;;28.10;;
67751;SDS011;54551;51.068;5.826;2023-03-01T01:11:44;68.13;;;27.50;;
67751;SDS011;54551;51.068;5.826;2023-03-01T01:14:12;81.03;;;31.90;;
67751;SDS011;54551;51.068;5.826;2023-03-01T01:16:39;46.57;;;19.90;;
67751;SDS011;54551;51.068;5.826;2023-03-01T01:19:05;27.73;;;16.07;;
67751;SDS011;54551;51.068;5.826;2023-03-01T01:21:31;21.50;;;12.83;;
67751;SDS011;54551;51.068;5.826;2023-03-01T01:23:57;20.80;;;13.03;;
67751;SDS011;54551;51.068;5.826;2023-03-01T01:26:25;16.80;;;11.77;;
67751;SDS011;54551;51.068;5.826;2023-03-01T01:28:53;16.70;;;10.30;;
67751;SDS011;54551;51.068;5.826;2023-03-01T01:31:19;15.20;;;9.80;;
67751;SDS011;54551;51.068;5.826;2023-03-01T01:33:46;11.07;;;9.17;;
67751;SDS011;54551;51.068;5.826;2023-03-01T01:36:12;11.90;;;9.40;;
67751;SDS011;54551;51.068;5.826;2023-03-01T01:38:38;11.20;;;9.30;;
67751;SDS011;54551;51.068;5.826;2023-03-01T01:41:05;10.47;;;9.47;;
67751;SDS011;54551;51.068;5.826;2023-03-01T01:43:39;12.43;;;9.50;;
67751;SDS011;54551;51.068;5.826;2023-03-01T01:46:28;10.27;;;9.00;;
67751;SDS011;54551;51.068;5.826;2023-03-01T01:49:07;11.27;;;8.87;;
67751;SDS011;54551;51.068;5.826;2023-03-01T01:51:48;10.63;;;9.60;;
67751;SDS011;54551;51.068;5.826;2023-03-01T01:54:20;10.27;;;9.17;;
67751;SDS011;54551;51.068;5.826;2023-03-01T01:56:58;11.77;;;9.30;;
67751;SDS011;54551;51.068;5.826;2023-03-01T01:59:28;9.97;;;8.87;;
67751;SDS011;54551;51.068;5.826;2023-03-01T02:01:56;13.83;;;9.50;;
67751;SDS011;54551;51.068;5.826;2023-03-01T02:04:26;11.83;;;8.57;;
67751;SDS011;54551;51.068;5.826;2023-03-01T02:06:55;10.17;;;9.13;;
67751;SDS011;54551;51.068;5.826;2023-03-01T02:09:26;14.53;;;9.83;;
67751;SDS011;54551;51.068;5.826;2023-03-01T02:11:53;14.93;;;11.07;;
67751;SDS011;54551;51.068;5.826;2023-03-01T02:14:19;11.57;;;10.37;;
67751;SDS011;54551;51.068;5.826;2023-03-01T02:16:45;11.10;;;9.50;;
67751;SDS011;54551;51.068;5.826;2023-03-01T02:19:14;11.17;;;9.83;;
67751;SDS011;54551;51.068;5.826;2023-03-01T02:22:23;51.73;;;30.77;;
67751;SDS011;54551;51.068;5.826;2023-03-01T02:27:17;41.13;;;24.10;;
67751;SDS011;54551;51.068;5.826;2023-03-01T02:29:50;27.27;;;15.90;;
67751;SDS011;54551;51.068;5.826;2023-03-01T02:32:16;15.57;;;11.80;;
67751;SDS011;54551;51.068;5.826;2023-03-01T02:34:53;14.63;;;10.67;;
67751;SDS011;54551;51.068;5.826;2023-03-01T02:37:20;11.40;;;10.20;;
67751;SDS011;54551;51.068;5.826;2023-03-01T02:39:54;14.30;;;11.30;;
67751;SDS011;54551;51.068;5.826;2023-03-01T02:42:31;12.67;;;11.37;;
67751;SDS011;54551;51.068;5.826;2023-03-01T02:45:02;13.07;;;11.50;;
67751;SDS011;54551;51.068;5.826;2023-03-01T02:47:29;12.37;;;11.07;;
67751;SDS011;54551;51.068;5.826;2023-03-01T02:49:55;15.70;;;11.10;;
67751;SDS011;54551;51.068;5.826;2023-03-01T02:55:06;13.87;;;11.17;;
67751;SDS011;54551;51.068;5.826;2023-03-01T02:57:36;13.60;;;10.87;;
67751;SDS011;54551;51.068;5.826;2023-03-01T03:00:06;13.30;;;11.13;;
67751;SDS011;54551;51.068;5.826;2023-03-01T03:02:51;12.07;;;10.77;;
67751;SDS011;54551;51.068;5.826;2023-03-01T03:05:22;13.30;;;11.90;;
67751;SDS011;54551;51.068;5.826;2023-03-01T03:07:54;14.10;;;11.07;;
67751;SDS011;54551;51.068;5.826;2023-03-01T03:10:25;15.47;;;11.30;;
67751;SDS011;54551;51.068;5.826;2023-03-01T03:12:54;13.00;;;11.60;;
67751;SDS011;54551;51.068;5.826;2023-03-01T03:15:23;15.23;;;11.43;;
67751;SDS011;54551;51.068;5.826;2023-03-01T03:17:50;12.90;;;11.63;;
67751;SDS011;54551;51.068;5.826;2023-03-01T03:20:17;13.07;;;10.67;;
67751;SDS011;54551;51.068;5.826;2023-03-01T03:22:47;14.27;;;11.70;;
67751;SDS011;54551;51.068;5.826;2023-03-01T03:25:15;14.37;;;11.37;;
67751;SDS011;54551;51.068;5.826;2023-03-01T03:27:43;13.67;;;11.60;;
67751;SDS011;54551;51.068;5.826;2023-03-01T03:30:11;14.33;;;12.63;;
67751;SDS011;54551;51.068;5.826;2023-03-01T03:32:39;22.83;;;17.80;;
67751;SDS011;54551;51.068;5.826;2023-03-01T03:35:06;23.70;;;18.27;;
67751;SDS011;54551;51.068;5.826;2023-03-01T03:37:40;22.80;;;16.57;;
67751;SDS011;54551;51.068;5.826;2023-03-01T03:40:25;16.93;;;13.73;;
67751;SDS011;54551;51.068;5.826;2023-03-01T03:42:51;16.10;;;12.40;;
67751;SDS011;54551;51.068;5.826;2023-03-01T03:45:17;14.07;;;12.63;;
67751;SDS011;54551;51.068;5.826;2023-03-01T03:47:44;23.90;;;16.87;;
67751;SDS011;54551;51.068;5.826;2023-03-01T03:50:13;25.30;;;17.73;;
67751;SDS011;54551;51.068;5.826;2023-03-01T03:52:41;25.27;;;18.50;;
67751;SDS011;54551;51.068;5.826;2023-03-01T03:55:07;18.00;;;13.27;;
67751;SDS011;54551;51.068;5.826;2023-03-01T03:57:40;18.23;;;14.00;;
67751;SDS011;54551;51.068;5.826;2023-03-01T04:00:08;17.27;;;13.90;;
67751;SDS011;54551;51.068;5.826;2023-03-01T04:02:43;14.93;;;12.90;;
67751;SDS011;54551;51.068;5.826;2023-03-01T04:05:11;17.70;;;14.03;;
67751;SDS011;54551;51.068;5.826;2023-03-01T04:07:39;16.30;;;14.17;;
67751;SDS011;54551;51.068;5.826;2023-03-01T04:10:11;15.70;;;12.67;;
67751;SDS011;54551;51.068;5.826;2023-03-01T04:12:39;16.23;;;12.67;;
67751;SDS011;54551;51.068;5.826;2023-03-01T04:15:06;17.43;;;13.57;;
67751;SDS011;54551;51.068;5.826;2023-03-01T04:17:42;14.47;;;12.60;;
67751;SDS011;54551;51.068;5.826;2023-03-01T04:20:13;13.43;;;11.40;;
67751;SDS011;54551;51.068;5.826;2023-03-01T04:23:00;14.97;;;12.43;;
67751;SDS011;54551;51.068;5.826;2023-03-01T04:25:38;19.50;;;14.07;;
67751;SDS011;54551;51.068;5.826;2023-03-01T04:28:04;17.30;;;14.70;;
67751;SDS011;54551;51.068;5.826;2023-03-01T04:30:31;17.07;;;12.87;;
67751;SDS011;54551;51.068;5.826;2023-03-01T04:33:07;19.20;;;13.70;;
67751;SDS011;54551;51.068;5.826;2023-03-01T04:35:35;15.00;;;12.53;;
67751;SDS011;54551;51.068;5.826;2023-03-01T04:38:02;14.40;;;12.90;;
67751;SDS011;54551;51.068;5.826;2023-03-01T04:40:29;18.23;;;13.87;;
67751;SDS011;54551;51.068;5.826;2023-03-01T04:42:55;17.50;;;13.30;;
67751;SDS011;54551;51.068;5.826;2023-03-01T04:45:21;16.97;;;13.43;;
67751;SDS011;54551;51.068;5.826;2023-03-01T04:47:48;16.47;;;13.80;;
67751;SDS011;54551;51.068;5.826;2023-03-01T04:50:15;15.60;;;13.63;;
67751;SDS011;54551;51.068;5.826;2023-03-01T04:52:43;15.13;;;13.47;;
67751;SDS011;54551;51.068;5.826;2023-03-01T04:55:09;15.47;;;13.57;;
67751;SDS011;54551;51.068;5.826;2023-03-01T04:57:36;16.17;;;13.90;;
67751;SDS011;54551;51.068;5.826;2023-03-01T05:00:03;19.83;;;14.40;;
67751;SDS011;54551;51.068;5.826;2023-03-01T05:02:57;18.73;;;14.33;;
67751;SDS011;54551;51.068;5.826;2023-03-01T05:05:27;15.70;;;14.00;;
67751;SDS011;54551;51.068;5.826;2023-03-01T05:07:56;18.33;;;15.10;;
67751;SDS011;54551;51.068;5.826;2023-03-01T05:10:23;18.77;;;15.40;;
67751;SDS011;54551;51.068;5.826;2023-03-01T05:12:50;16.10;;;14.40;;
67751;SDS011;54551;51.068;5.826;2023-03-01T05:15:18;15.70;;;14.07;;
67751;SDS011;54551;51.068;5.826;2023-03-01T05:17:47;16.53;;;14.43;;
67751;SDS011;54551;51.068;5.826;2023-03-01T05:20:14;15.10;;;13.50;;
67751;SDS011;54551;51.068;5.826;2023-03-01T05:22:40;17.50;;;15.33;;
67751;SDS011;54551;51.068;5.826;2023-03-01T05:25:06;19.43;;;13.83;;
67751;SDS011;54551;51.068;5.826;2023-03-01T05:27:33;19.37;;;14.20;;
67751;SDS011;54551;51.068;5.826;2023-03-01T05:30:00;17.77;;;14.60;;
67751;SDS011;54551;51.068;5.826;2023-03-01T05:32:42;16.10;;;13.53;;
67751;SDS011;54551;51.068;5.826;2023-03-01T05:35:13;15.97;;;13.60;;
67751;SDS011;54551;51.068;5.826;2023-03-01T05:37:42;16.80;;;14.23;;
67751;SDS011;54551;51.068;5.826;2023-03-01T05:40:13;18.23;;;13.87;;
67751;SDS011;54551;51.068;5.826;2023-03-01T05:42:44;17.10;;;13.70;;
67751;SDS011;54551;51.068;5.826;2023-03-01T05:45:12;17.13;;;13.10;;
67751;SDS011;54551;51.068;5.826;2023-03-01T05:47:39;16.60;;;13.80;;
67751;SDS011;54551;51.068;5.826;2023-03-01T05:50:16;15.17;;;13.40;;
67751;SDS011;54551;51.068;5.826;2023-03-01T05:52:48;16.30;;;13.53;;
67751;SDS011;54551;51.068;5.826;2023-03-01T05:55:19;17.07;;;13.83;;
67751;SDS011;54551;51.068;5.826;2023-03-01T05:57:46;17.10;;;12.90;;
67751;SDS011;54551;51.068;5.826;2023-03-01T06:00:13;14.43;;;13.00;;
67751;SDS011;54551;51.068;5.826;2023-03-01T06:02:42;17.47;;;13.13;;
67751;SDS011;54551;51.068;5.826;2023-03-01T06:05:09;18.20;;;13.37;;
67751;SDS011;54551;51.068;5.826;2023-03-01T06:07:36;14.33;;;12.83;;
67751;SDS011;54551;51.068;5.826;2023-03-01T06:10:03;14.17;;;12.63;;
67751;SDS011;54551;51.068;5.826;2023-03-01T06:12:31;17.50;;;13.87;;
67751;SDS011;54551;51.068;5.826;2023-03-01T06:14:58;17.70;;;13.73;;
67751;SDS011;54551;51.068;5.826;2023-03-01T06:17:24;16.00;;;13.17;;
67751;SDS011;54551;51.068;5.826;2023-03-01T06:19:50;15.47;;;13.27;;
67751;SDS011;54551;51.068;5.826;2023-03-01T06:22:16;16.70;;;13.70;;
67751;SDS011;54551;51.068;5.826;2023-03-01T06:24:42;15.33;;;12.67;;
67751;SDS011;54551;51.068;5.826;2023-03-01T06:27:08;15.20;;;13.63;;
67751;SDS011;54551;51.068;5.826;2023-03-01T06:29:34;16.20;;;13.23;;
67751;SDS011;54551;51.068;5.826;2023-03-01T06:32:00;15.03;;;12.97;;
67751;SDS011;54551;51.068;5.826;2023-03-01T06:34:27;18.67;;;13.00;;
67751;SDS011;54551;51.068;5.826;2023-03-01T06:36:53;13.63;;;12.23;;
67751;SDS011;54551;51.068;5.826;2023-03-01T06:39:19;16.80;;;14.07;;
67751;SDS011;54551;51.068;5.826;2023-03-01T06:41:44;16.57;;;13.60;;
67751;SDS011;54551;51.068;5.826;2023-03-01T06:44:10;17.17;;;13.77;;
67751;SDS011;54551;51.068;5.826;2023-03-01T06:46:36;15.47;;;12.73;;
67751;SDS011;54551;51.068;5.826;2023-03-01T06:49:02;15.83;;;12.47;;
67751;SDS011;54551;51.068;5.826;2023-03-01T06:51:32;15.60;;;13.50;;
67751;SDS011;54551;51.068;5.826;2023-03-01T06:53:58;17.60;;;14.23;;
67751;SDS011;54551;51.068;5.826;2023-03-01T06:56:24;13.97;;;12.53;;
67751;SDS011;54551;51.068;5.826;2023-03-01T06:58:50;15.30;;;13.17;;
67751;SDS011;54551;51.068;5.826;2023-03-01T07:01:16;17.63;;;12.87;;
67751;SDS011;54551;51.068;5.826;2023-03-01T07:03:42;15.33;;;13.50;;
67751;SDS011;54551;51.068;5.826;2023-03-01T07:06:09;16.30;;;12.97;;
67751;SDS011;54551;51.068;5.826;2023-03-01T07:08:35;17.00;;;14.03;;
67751;SDS011;54551;51.068;5.826;2023-03-01T07:11:01;18.33;;;13.07;;
67751;SDS011;54551;51.068;5.826;2023-03-01T07:13:28;17.37;;;13.87;;
67751;SDS011;54551;51.068;5.826;2023-03-01T07:15:55;17.17;;;13.40;;
67751;SDS011;54551;51.068;5.826;2023-03-01T07:18:21;14.93;;;13.10;;
67751;SDS011;54551;51.068;5.826;2023-03-01T07:20:47;23.53;;;14.23;;
67751;SDS011;54551;51.068;5.826;2023-03-01T07:23:13;15.53;;;13.00;;
67751;SDS011;54551;51.068;5.826;2023-03-01T07:25:39;17.40;;;13.43;;
67751;SDS011;54551;51.068;5.826;2023-03-01T07:28:05;16.63;;;12.17;;
67751;SDS011;54551;51.068;5.826;2023-03-01T07:30:30;16.17;;;13.13;;
67751;SDS011;54551;51.068;5.826;2023-03-01T07:32:57;13.53;;;11.83;;
67751;SDS011;54551;51.068;5.826;2023-03-01T07:35:24;14.73;;;11.77;;
67751;SDS011;54551;51.068;5.826;2023-03-01T07:37:52;16.63;;;12.87;;
67751;SDS011;54551;51.068;5.826;2023-03-01T07:40:18;15.93;;;11.63;;
67751;SDS011;54551;51.068;5.826;2023-03-01T07:42:44;14.10;;;11.27;;
67751;SDS011;54551;51.068;5.826;2023-03-01T07:45:10;13.60;;;11.80;;
67751;SDS011;54551;51.068;5.826;2023-03-01T07:47:38;13.73;;;10.97;;
67751;SDS011;54551;51.068;5.826;2023-03-01T07:50:04;13.13;;;10.53;;
67751;SDS011;54551;51.068;5.826;2023-03-01T07:52:31;13.90;;;11.20;;
67751;SDS011;54551;51.068;5.826;2023-03-01T07:54:57;12.77;;;9.80;;
67751;SDS011;54551;51.068;5.826;2023-03-01T07:57:23;13.23;;;11.40;;
67751;SDS011;54551;51.068;5.826;2023-03-01T07:59:49;11.80;;;10.57;;
67751;SDS011;54551;51.068;5.826;2023-03-01T08:02:15;13.63;;;11.17;;
67751;SDS011;54551;51.068;5.826;2023-03-01T08:04:41;12.50;;;10.20;;
67751;SDS011;54551;51.068;5.826;2023-03-01T08:07:07;10.87;;;9.70;;
67751;SDS011;54551;51.068;5.826;2023-03-01T08:09:34;13.03;;;10.70;;
67751;SDS011;54551;51.068;5.826;2023-03-01T08:12:01;15.37;;;11.20;;
67751;SDS011;54551;51.068;5.826;2023-03-01T08:14:30;12.93;;;10.77;;
67751;SDS011;54551;51.068;5.826;2023-03-01T08:16:57;12.20;;;10.93;;
67751;SDS011;54551;51.068;5.826;2023-03-01T08:19:23;13.23;;;11.90;;
67751;SDS011;54551;51.068;5.826;2023-03-01T08:21:49;12.63;;;10.90;;
67751;SDS011;54551;51.068;5.826;2023-03-01T08:24:15;13.07;;;11.27;;
67751;SDS011;54551;51.068;5.826;2023-03-01T08:26:41;13.00;;;11.50;;
67751;SDS011;54551;51.068;5.826;2023-03-01T08:29:07;15.73;;;11.40;;
67751;SDS011;54551;51.068;5.826;2023-03-01T08:31:34;12.67;;;10.80;;
67751;SDS011;54551;51.068;5.826;2023-03-01T08:34:03;12.50;;;11.30;;
67751;SDS011;54551;51.068;5.826;2023-03-01T08:36:32;12.77;;;11.43;;
67751;SDS011;54551;51.068;5.826;2023-03-01T08:39:03;12.93;;;11.53;;
67751;SDS011;54551;51.068;5.826;2023-03-01T08:41:30;13.83;;;11.40;;
67751;SDS011;54551;51.068;5.826;2023-03-01T08:43:56;13.27;;;11.87;;
67751;SDS011;54551;51.068;5.826;2023-03-01T08:46:32;16.67;;;12.33;;
67751;SDS011;54551;51.068;5.826;2023-03-01T08:49:03;15.47;;;11.80;;
67751;SDS011;54551;51.068;5.826;2023-03-01T08:51:30;12.93;;;11.60;;
67751;SDS011;54551;51.068;5.826;2023-03-01T08:54:02;13.23;;;11.60;;
67751;SDS011;54551;51.068;5.826;2023-03-01T08:56:29;13.00;;;11.70;;
67751;SDS011;54551;51.068;5.826;2023-03-01T08:58:55;13.00;;;11.70;;
67751;SDS011;54551;51.068;5.826;2023-03-01T09:01:21;14.50;;;12.60;;
67751;SDS011;54551;51.068;5.826;2023-03-01T09:03:47;13.30;;;11.57;;
67751;SDS011;54551;51.068;5.826;2023-03-01T09:06:13;13.00;;;11.70;;
67751;SDS011;54551;51.068;5.826;2023-03-01T09:08:40;14.03;;;11.27;;
67751;SDS011;54551;51.068;5.826;2023-03-01T09:11:08;13.20;;;11.37;;
67751;SDS011;54551;51.068;5.826;2023-03-01T09:13:36;14.00;;;11.20;;
67751;SDS011;54551;51.068;5.826;2023-03-01T09:16:03;12.47;;;9.83;;
67751;SDS011;54551;51.068;5.826;2023-03-01T09:18:31;14.33;;;11.27;;
67751;SDS011;54551;51.068;5.826;2023-03-01T09:21:05;14.00;;;12.00;;
67751;SDS011;54551;51.068;5.826;2023-03-01T09:23:40;13.77;;;11.40;;
67751;SDS011;54551;51.068;5.826;2023-03-01T09:26:12;13.10;;;11.80;;
67751;SDS011;54551;51.068;5.826;2023-03-01T09:28:41;11.73;;;10.37;;
67751;SDS011;54551;51.068;5.826;2023-03-01T09:31:08;12.20;;;11.00;;
67751;SDS011;54551;51.068;5.826;2023-03-01T09:33:34;13.20;;;11.73;;
67751;SDS011;54551;51.068;5.826;2023-03-01T09:36:01;13.33;;;11.60;;
67751;SDS011;54551;51.068;5.826;2023-03-01T09:38:29;12.90;;;11.60;;
67751;SDS011;54551;51.068;5.826;2023-03-01T09:40:55;13.53;;;12.17;;
67751;SDS011;54551;51.068;5.826;2023-03-01T09:43:23;13.30;;;10.40;;
67751;SDS011;54551;51.068;5.826;2023-03-01T09:46:10;12.80;;;10.97;;
67751;SDS011;54551;51.068;5.826;2023-03-01T09:48:52;12.67;;;10.80;;
67751;SDS011;54551;51.068;5.826;2023-03-01T09:51:26;12.97;;;11.67;;
67751;SDS011;54551;51.068;5.826;2023-03-01T09:53:57;14.87;;;11.57;;
67751;SDS011;54551;51.068;5.826;2023-03-01T09:56:34;14.63;;;11.53;;
67751;SDS011;54551;51.068;5.826;2023-03-01T09:59:15;13.73;;;12.20;;
67751;SDS011;54551;51.068;5.826;2023-03-01T10:02:11;12.90;;;11.10;;
67751;SDS011;54551;51.068;5.826;2023-03-01T10:04:48;12.90;;;11.43;;
67751;SDS011;54551;51.068;5.826;2023-03-01T10:10:26;13.00;;;11.57;;
67751;SDS011;54551;51.068;5.826;2023-03-01T10:13:15;13.40;;;12.03;;
67751;SDS011;54551;51.068;5.826;2023-03-01T10:15:56;13.30;;;11.17;;
67751;SDS011;54551;51.068;5.826;2023-03-01T10:18:26;13.23;;;11.57;;
67751;SDS011;54551;51.068;5.826;2023-03-01T10:20:58;14.07;;;12.10;;
67751;SDS011;54551;51.068;5.826;2023-03-01T10:23:27;13.73;;;12.33;;
67751;SDS011;54551;51.068;5.826;2023-03-01T10:31:27;14.27;;;12.77;;
67751;SDS011;54551;51.068;5.826;2023-03-01T10:34:09;13.37;;;11.90;;
67751;SDS011;54551;51.068;5.826;2023-03-01T10:36:48;12.47;;;11.17;;
67751;SDS011;54551;51.068;5.826;2023-03-01T10:39:21;16.17;;;12.47;;
67751;SDS011;54551;51.068;5.826;2023-03-01T10:41:52;13.07;;;11.70;;
67751;SDS011;54551;51.068;5.826;2023-03-01T10:44:41;13.33;;;11.93;;
67751;SDS011;54551;51.068;5.826;2023-03-01T10:47:17;15.87;;;11.57;;
67751;SDS011;54551;51.068;5.826;2023-03-01T10:50:01;12.23;;;10.87;;
67751;SDS011;54551;51.068;5.826;2023-03-01T10:52:31;14.10;;;11.63;;
67751;SDS011;54551;51.068;5.826;2023-03-01T10:55:01;14.97;;;13.47;;
67751;SDS011;54551;51.068;5.826;2023-03-01T10:57:43;13.90;;;12.40;;
67751;SDS011;54551;51.068;5.826;2023-03-01T11:00:20;14.70;;;12.47;;
67751;SDS011;54551;51.068;5.826;2023-03-01T11:02:48;13.57;;;12.20;;
67751;SDS011;54551;51.068;5.826;2023-03-01T11:05:25;16.43;;;14.17;;
67751;SDS011;54551;51.068;5.826;2023-03-01T11:07:57;15.47;;;12.50;;
67751;SDS011;54551;51.068;5.826;2023-03-01T11:10:31;16.80;;;12.77;;
67751;SDS011;54551;51.068;5.826;2023-03-01T11:13:13;12.97;;;11.67;;
67751;SDS011;54551;51.068;5.826;2023-03-01T11:15:44;14.50;;;13.00;;
67751;SDS011;54551;51.068;5.826;2023-03-01T11:18:27;14.83;;;13.23;;
67751;SDS011;54551;51.068;5.826;2023-03-01T11:20:55;13.43;;;11.67;;
67751;SDS011;54551;51.068;5.826;2023-03-01T11:23:22;14.80;;;11.80;;
67751;SDS011;54551;51.068;5.826;2023-03-01T11:25:55;11.20;;;10.17;;
67751;SDS011;54551;51.068;5.826;2023-03-01T11:28:27;13.80;;;12.03;;
67751;SDS011;54551;51.068;5.826;2023-03-01T11:31:03;14.70;;;12.00;;
67751;SDS011;54551;51.068;5.826;2023-03-01T11:36:05;17.37;;;13.40;;
67751;SDS011;54551;51.068;5.826;2023-03-01T11:38:34;14.47;;;11.33;;
67751;SDS011;54551;51.068;5.826;2023-03-01T11:41:05;14.77;;;13.10;;
67751;SDS011;54551;51.068;5.826;2023-03-01T11:43:41;14.50;;;12.13;;
67751;SDS011;54551;51.068;5.826;2023-03-01T11:48:51;14.17;;;12.67;;
67751;SDS011;54551;51.068;5.826;2023-03-01T12:05:28;14.93;;;12.50;;
67751;SDS011;54551;51.068;5.826;2023-03-01T12:11:06;15.67;;;13.00;;
67751;SDS011;54551;51.068;5.826;2023-03-01T12:35:43;13.43;;;11.97;;
67751;SDS011;54551;51.068;5.826;2023-03-01T12:38:33;12.90;;;11.53;;
67751;SDS011;54551;51.068;5.826;2023-03-01T12:49:38;13.03;;;11.73;;
67751;SDS011;54551;51.068;5.826;2023-03-01T12:52:16;12.23;;;11.03;;
67751;SDS011;54551;51.068;5.826;2023-03-01T12:54:48;11.47;;;10.23;;
67751;SDS011;54551;51.068;5.826;2023-03-01T12:57:27;13.70;;;12.33;;
67751;SDS011;54551;51.068;5.826;2023-03-01T13:02:36;12.03;;;10.60;;
67751;SDS011;54551;51.068;5.826;2023-03-01T13:05:16;11.40;;;10.27;;
67751;SDS011;54551;51.068;5.826;2023-03-01T13:10:40;11.83;;;10.53;;
67751;SDS011;54551;51.068;5.826;2023-03-01T13:13:21;11.27;;;10.17;;
67751;SDS011;54551;51.068;5.826;2023-03-01T13:15:49;10.83;;;9.73;;
67751;SDS011;54551;51.068;5.826;2023-03-01T13:20:54;11.13;;;9.93;;
67751;SDS011;54551;51.068;5.826;2023-03-01T13:26:00;12.73;;;10.17;;
67751;SDS011;54551;51.068;5.826;2023-03-01T13:31:02;13.80;;;11.10;;
67751;SDS011;54551;51.068;5.826;2023-03-01T13:35:56;13.03;;;10.23;;
67751;SDS011;54551;51.068;5.826;2023-03-01T13:41:12;11.50;;;10.30;;
67751;SDS011;54551;51.068;5.826;2023-03-01T13:43:44;10.73;;;9.73;;
67751;SDS011;54551;51.068;5.826;2023-03-01T13:46:16;14.00;;;10.77;;
67751;SDS011;54551;51.068;5.826;2023-03-01T13:48:46;13.07;;;10.43;;
67751;SDS011;54551;51.068;5.826;2023-03-01T13:51:16;14.40;;;9.57;;
67751;SDS011;54551;51.068;5.826;2023-03-01T13:53:49;13.77;;;10.13;;
67751;SDS011;54551;51.068;5.826;2023-03-01T13:56:15;10.20;;;9.10;;
67751;SDS011;54551;51.068;5.826;2023-03-01T13:59:31;10.00;;;8.97;;
67751;SDS011;54551;51.068;5.826;2023-03-01T14:01:43;11.17;;;8.80;;
67751;SDS011;54551;51.068;5.826;2023-03-01T14:04:20;10.37;;;9.20;;
67751;SDS011;54551;51.068;5.826;2023-03-01T14:09:45;10.20;;;7.90;;
67751;SDS011;54551;51.068;5.826;2023-03-01T14:17:25;10.50;;;8.47;;
67751;SDS011;54551;51.068;5.826;2023-03-01T14:20:00;8.50;;;7.60;;
67751;SDS011;54551;51.068;5.826;2023-03-01T14:22:30;10.67;;;8.27;;
67751;SDS011;54551;51.068;5.826;2023-03-01T14:24:59;7.87;;;7.00;;
67751;SDS011;54551;51.068;5.826;2023-03-01T14:27:42;11.67;;;8.70;;
67751;SDS011;54551;51.068;5.826;2023-03-01T14:33:17;9.27;;;7.57;;
67751;SDS011;54551;51.068;5.826;2023-03-01T14:36:02;8.10;;;7.27;;
67751;SDS011;54551;51.068;5.826;2023-03-01T14:41:02;9.97;;;8.10;;
67751;SDS011;54551;51.068;5.826;2023-03-01T14:43:31;9.27;;;7.60;;
67751;SDS011;54551;51.068;5.826;2023-03-01T14:45:58;9.60;;;6.90;;
67751;SDS011;54551;51.068;5.826;2023-03-01T14:48:24;9.00;;;8.07;;
67751;SDS011;54551;51.068;5.826;2023-03-01T14:50:52;9.47;;;7.50;;
67751;SDS011;54551;51.068;5.826;2023-03-01T14:53:22;8.80;;;7.27;;
67751;SDS011;54551;51.068;5.826;2023-03-01T14:55:51;11.80;;;7.07;;
67751;SDS011;54551;51.068;5.826;2023-03-01T14:58:21;9.40;;;8.37;;
67751;SDS011;54551;51.068;5.826;2023-03-01T15:00:55;9.83;;;7.07;;
67751;SDS011;54551;51.068;5.826;2023-03-01T15:03:28;9.50;;;7.70;;
67751;SDS011;54551;51.068;5.826;2023-03-01T15:06:09;8.17;;;6.93;;
67751;SDS011;54551;51.068;5.826;2023-03-01T15:08:44;8.07;;;6.40;;
67751;SDS011;54551;51.068;5.826;2023-03-01T15:13:39;9.37;;;7.43;;
67751;SDS011;54551;51.068;5.826;2023-03-01T15:16:09;11.23;;;7.10;;
67751;SDS011;54551;51.068;5.826;2023-03-01T15:18:54;11.20;;;7.70;;
67751;SDS011;54551;51.068;5.826;2023-03-01T15:21:22;8.63;;;7.23;;
67751;SDS011;54551;51.068;5.826;2023-03-01T15:29:24;8.63;;;7.07;;
67751;SDS011;54551;51.068;5.826;2023-03-01T15:34:27;11.50;;;6.90;;
67751;SDS011;54551;51.068;5.826;2023-03-01T15:37:04;11.60;;;7.30;;
67751;SDS011;54551;51.068;5.826;2023-03-01T15:39:34;11.03;;;7.73;;
67751;SDS011;54551;51.068;5.826;2023-03-01T15:47:46;10.43;;;7.03;;
67751;SDS011;54551;51.068;5.826;2023-03-01T15:50:19;11.33;;;7.93;;
67751;SDS011;54551;51.068;5.826;2023-03-01T15:52:47;9.90;;;6.87;;
67751;SDS011;54551;51.068;5.826;2023-03-01T15:55:18;8.30;;;7.20;;
67751;SDS011;54551;51.068;5.826;2023-03-01T15:57:46;10.33;;;7.77;;
67751;SDS011;54551;51.068;5.826;2023-03-01T16:00:12;9.53;;;7.43;;
67751;SDS011;54551;51.068;5.826;2023-03-01T16:02:39;10.57;;;7.73;;
67751;SDS011;54551;51.068;5.826;2023-03-01T16:05:26;9.53;;;7.70;;
67751;SDS011;54551;51.068;5.826;2023-03-01T16:07:53;9.67;;;7.70;;
67751;SDS011;54551;51.068;5.826;2023-03-01T16:10:20;8.83;;;7.37;;
67751;SDS011;54551;51.068;5.826;2023-03-01T16:12:46;10.20;;;7.13;;
67751;SDS011;54551;51.068;5.826;2023-03-01T16:15:23;10.87;;;7.43;;
67751;SDS011;54551;51.068;5.826;2023-03-01T16:17:49;8.73;;;7.07;;
67751;SDS011;54551;51.068;5.826;2023-03-01T16:20:21;8.93;;;7.87;;
67751;SDS011;54551;51.068;5.826;2023-03-01T16:22:47;10.73;;;8.40;;
67751;SDS011;54551;51.068;5.826;2023-03-01T16:25:15;12.27;;;8.03;;
67751;SDS011;54551;51.068;5.826;2023-03-01T16:27:42;12.60;;;8.67;;
67751;SDS011;54551;51.068;5.826;2023-03-01T16:30:09;9.43;;;8.13;;
67751;SDS011;54551;51.068;5.826;2023-03-01T16:32:39;12.27;;;8.40;;
67751;SDS011;54551;51.068;5.826;2023-03-01T16:35:07;10.63;;;8.20;;
67751;SDS011;54551;51.068;5.826;2023-03-01T16:37:34;11.10;;;8.17;;